Time;durP1;ratioP1;P1;durP2;ratioP2;P2;SDS_P1;SDS_P2;PMS_P1;PMS_P2;Temp;Humidity;BMP_temperature;BMP_pressure;BME280_temperature;BME280_humidity;BME280_pressure;Samples;Min_cycle;Max_cycle;Signal;HPM_P1;HPM_P2
2022/04/12 00:02:29;;;;;;;;;;;;;;;6.54;57.23;96992.81;6374533;27;20626;-62
2022/04/12 00:05:33;;;;;;;;;;;;;;;6.48;57.30;96987.84;6374371;27;20423;-64
2022/04/12 00:08:36;;;;;;;;;;;;;;;6.46;57.68;96992.31;6373723;27;20307;-64
2022/04/12 00:11:42;;;;;;;;;;;;;;;6.39;57.52;96991.72;6374207;27;20330;-64
2022/04/12 00:14:46;;;;;;;;;;;;;;;6.39;57.61;96983.03;6373546;27;19923;-63
2022/04/12 00:21:09;;;;;;;;;;;;;;;6.34;57.47;96961.50;6373075;27;19924;-64
2022/04/12 00:24:13;;;;;;;;;;;;;;;6.37;57.59;96964.84;6373935;27;19927;-64
2022/04/12 00:27:17;;;;;;;;;;;;;;;6.38;57.46;96958.69;6373528;27;19923;-64
2022/04/12 00:30:19;;;;;;;;;;;;;;;6.39;57.82;96962.13;6371715;27;19937;-63
2022/04/12 00:33:20;;;;;;;;;;;;;;;6.35;58.26;96953.59;6372505;27;19930;-64
2022/04/12 00:36:24;;;;;;;;;;;;;;;6.30;58.41;96951.19;6373704;27;19923;-63
2022/04/12 00:39:25;;;;;;;;;;;;;;;6.28;58.64;96957.41;6373046;27;19923;-63
2022/04/12 00:42:26;;;;;;;;;;;;;;;6.27;58.43;96950.50;6372840;27;19930;-64
2022/04/12 00:45:27;;;;;;;;;;;;;;;6.33;58.47;96965.03;6372051;27;19923;-64
2022/04/12 00:48:29;;;;;;;;;;;;;;;6.34;58.47;96967.59;6372612;27;19923;-63
2022/04/12 00:51:30;;;;;;;;;;;;;;;6.24;58.53;96961.09;6372539;27;20291;-64
2022/04/12 00:54:33;;;;;;;;;;;;;;;6.23;58.93;96968.09;6372449;27;19923;-64
2022/04/12 00:57:37;;;;;;;;;;;;;;;6.19;59.00;96974.34;6372307;27;19927;-64
2022/04/12 01:00:40;;;;;;;;;;;;;;;6.18;59.04;96975.28;6372319;27;19930;-64
2022/04/12 01:03:41;;;;;;;;;;;;;;;6.15;58.89;96970.19;6371982;27;19927;-64
2022/04/12 01:06:45;;;;;;;;;;;;;;;6.16;58.95;96977.13;6372855;27;19924;-64
2022/04/12 01:09:46;;;;;;;;;;;;;;;6.19;59.08;96983.97;6353865;27;19923;-64
2022/04/12 01:12:51;;;;;;;;;;;;;;;6.23;58.97;96982.94;6372716;27;19923;-63
2022/04/12 01:15:56;;;;;;;;;;;;;;;6.22;59.29;96984.66;6371648;27;19931;-62
2022/04/12 01:18:59;;;;;;;;;;;;;;;6.20;58.91;96983.91;6372575;27;19927;-64
2022/04/12 01:22:04;;;;;;;;;;;;;;;6.22;59.16;96979.44;6371739;27;19924;-63
2022/04/12 01:25:07;;;;;;;;;;;;;;;6.19;59.47;96979.59;6372383;27;19923;-64
2022/04/12 01:28:10;;;;;;;;;;;;;;;6.14;59.60;96981.56;6372523;27;19983;-65
2022/04/12 01:31:11;;;;;;;;;;;;;;;6.16;59.58;96974.50;6371545;27;19929;-63
2022/04/12 01:34:14;;;;;;;;;;;;;;;6.20;59.23;96981.28;6371294;27;20500;-64
2022/04/12 01:37:20;;;;;;;;;;;;;;;6.24;59.15;96975.00;6372112;27;19923;-64
2022/04/12 01:40:21;;;;;;;;;;;;;;;6.25;59.19;96986.28;6371387;27;20456;-64
2022/04/12 01:43:22;;;;;;;;;;;;;;;6.23;59.39;96981.16;6370823;27;19930;-64
2022/04/12 01:46:26;;;;;;;;;;;;;;;6.27;59.09;96982.69;6371950;27;19924;-65
2022/04/12 01:49:27;;;;;;;;;;;;;;;6.29;59.08;96988.72;6371005;27;20335;-64
2022/04/12 01:52:31;;;;;;;;;;;;;;;6.30;59.13;96987.78;6371914;27;19924;-64
2022/04/12 01:55:35;;;;;;;;;;;;;;;6.36;59.41;96991.03;6371765;27;20299;-65
2022/04/12 01:58:36;;;;;;;;;;;;;;;6.44;59.06;97000.22;6370644;27;19927;-64
2022/04/12 02:01:40;;;;;;;;;;;;;;;6.53;59.34;96993.72;6371741;27;20384;-64
2022/04/12 02:04:43;;;;;;;;;;;;;;;6.60;59.57;96995.13;6371479;27;19929;-64
2022/04/12 02:07:49;;;;;;;;;;;;;;;6.71;59.47;97003.31;6353691;28;19924;-64
2022/04/12 02:10:52;;;;;;;;;;;;;;;6.83;58.65;96991.41;6371556;28;19930;-64
2022/04/12 02:13:55;;;;;;;;;;;;;;;6.96;57.76;96986.44;6371570;28;19923;-64
2022/04/12 02:16:56;;;;;;;;;;;;;;;7.00;57.79;96993.22;6370307;28;20026;-64
2022/04/12 02:20:00;;;;;;;;;;;;;;;7.05;57.46;96991.22;6371376;28;19923;-64
2022/04/12 02:23:01;;;;;;;;;;;;;;;7.14;57.62;96989.94;6357352;27;19930;-64
2022/04/12 02:26:02;;;;;;;;;;;;;;;7.20;57.33;96985.22;6375898;27;19919;-64
2022/04/12 02:29:06;;;;;;;;;;;;;;;7.22;57.37;96989.53;6375593;27;19924;-64
2022/04/12 02:32:10;;;;;;;;;;;;;;;7.24;57.12;96979.84;6376627;27;19924;-64
2022/04/12 02:35:13;;;;;;;;;;;;;;;7.22;57.14;96984.28;6376498;27;19924;-64
2022/04/12 02:38:19;;;;;;;;;;;;;;;7.19;57.33;96975.69;6376263;27;19923;-64
2022/04/12 02:41:23;;;;;;;;;;;;;;;7.04;57.61;96981.66;6375654;27;19924;-64
2022/04/12 02:44:24;;;;;;;;;;;;;;;6.94;58.14;96983.06;6375570;27;19923;-64
2022/04/12 02:47:28;;;;;;;;;;;;;;;6.75;59.01;96981.31;6375949;27;19923;-64
2022/04/12 02:50:29;;;;;;;;;;;;;;;6.74;59.22;96991.88;6375041;27;19924;-65
2022/04/12 02:53:30;;;;;;;;;;;;;;;6.63;59.88;96983.69;6375728;27;19954;-64
2022/04/12 02:56:31;;;;;;;;;;;;;;;6.63;60.00;96987.13;6375063;27;19923;-65
2022/04/12 02:59:32;;;;;;;;;;;;;;;6.75;59.89;96989.16;6375154;27;20408;-65
2022/04/12 03:02:38;;;;;;;;;;;;;;;6.77;59.70;96991.72;6375923;27;19928;-65
2022/04/12 03:05:39;;;;;;;;;;;;;;;6.85;59.52;96988.72;6374588;27;20366;-65
2022/04/12 03:08:40;;;;;;;;;;;;;;;7.01;59.37;96989.66;6374210;27;19956;-65
2022/04/12 03:11:44;;;;;;;;;;;;;;;7.00;59.06;96990.59;6375291;27;20147;-65
2022/04/12 03:14:45;;;;;;;;;;;;;;;7.12;59.04;96984.75;6374289;27;19923;-65
2022/04/12 03:17:46;;;;;;;;;;;;;;;7.16;58.80;96981.09;6357122;27;19946;-63
2022/04/12 03:20:51;;;;;;;;;;;;;;;7.22;58.76;96986.91;6375350;27;20481;-65
2022/04/12 03:23:55;;;;;;;;;;;;;;;7.35;58.74;96985.38;6374178;27;19923;-64
2022/04/12 03:26:57;;;;;;;;;;;;;;;7.53;58.43;96987.09;6374182;27;20030;-64
2022/04/12 03:30:00;;;;;;;;;;;;;;;7.65;57.99;96983.84;6375062;27;20397;-64
2022/04/12 03:33:02;;;;;;;;;;;;;;;7.78;57.67;96980.56;6373145;27;20045;-64
2022/04/12 03:36:05;;;;;;;;;;;;;;;7.86;57.36;96971.38;6374981;27;19923;-65
2022/04/12 03:39:10;;;;;;;;;;;;;;;7.84;57.31;96969.78;6373810;27;19926;-64
2022/04/12 03:42:15;;;;;;;;;;;;;;;7.82;57.59;96982.13;6374013;27;19923;-65
2022/04/12 03:45:18;;;;;;;;;;;;;;;7.86;57.45;96970.56;6374502;27;19923;-66
2022/04/12 03:48:19;;;;;;;;;;;;;;;7.90;57.43;96974.72;6373705;27;19923;-64
2022/04/12 03:51:23;;;;;;;;;;;;;;;7.98;57.18;96974.28;6374685;27;19923;-64
2022/04/12 03:54:29;;;;;;;;;;;;;;;8.03;56.77;96980.97;6374385;27;19920;-65
2022/04/12 03:57:30;;;;;;;;;;;;;;;8.12;56.23;96973.56;6373920;27;20043;-65
2022/04/12 04:00:34;;;;;;;;;;;;;;;8.03;56.06;96975.75;6373116;27;20317;-65
2022/04/12 04:03:35;;;;;;;;;;;;;;;7.90;56.24;96972.09;6354964;27;20089;-64
2022/04/12 04:06:38;;;;;;;;;;;;;;;7.89;55.97;96978.25;6374239;27;19923;-65
2022/04/12 04:09:39;;;;;;;;;;;;;;;7.95;55.87;96971.84;6338560;27;19931;-65
2022/04/12 04:12:43;;;;;;;;;;;;;;;7.91;55.61;96971.16;6355878;27;20323;-64
2022/04/12 04:15:46;;;;;;;;;;;;;;;7.89;55.73;96973.00;6374306;27;19924;-64
2022/04/12 04:18:50;;;;;;;;;;;;;;;7.95;55.72;96979.69;6373640;27;19924;-65
2022/04/12 04:21:51;;;;;;;;;;;;;;;7.94;55.93;96976.22;6374363;27;19931;-63
2022/04/12 04:24:52;;;;;;;;;;;;;;;7.96;55.53;96974.38;6373746;27;20351;-64
2022/04/12 04:27:56;;;;;;;;;;;;;;;7.98;55.50;96982.16;6355770;27;19923;-66
2022/04/12 04:30:57;;;;;;;;;;;;;;;8.02;55.67;96968.81;6373593;27;19923;-67
2022/04/12 04:33:58;;;;;;;;;;;;;;;7.93;55.78;96969.31;6354641;27;20300;-64
2022/04/12 04:37:01;;;;;;;;;;;;;;;7.93;55.88;96969.31;6373528;27;19923;-65
2022/04/12 04:40:03;;;;;;;;;;;;;;;7.86;55.98;96973.16;6373589;27;19934;-64
2022/04/12 04:43:05;;;;;;;;;;;;;;;7.87;56.31;96974.88;6373345;27;19937;-64
2022/04/12 04:46:06;;;;;;;;;;;;;;;7.96;56.36;96977.00;6371187;27;19923;-65
2022/04/12 04:49:07;;;;;;;;;;;;;;;8.10;55.88;96969.25;6372971;27;19935;-64
2022/04/12 04:52:10;;;;;;;;;;;;;;;8.26;55.94;96974.50;6373260;27;19924;-65
2022/04/12 04:55:12;;;;;;;;;;;;;;;8.31;56.14;96969.03;6372988;27;20304;-65
2022/04/12 04:58:14;;;;;;;;;;;;;;;8.17;56.17;96975.00;6371931;27;19923;-64
2022/04/12 05:01:20;;;;;;;;;;;;;;;8.16;56.33;96967.25;6373075;27;19923;-64
2022/04/12 05:04:23;;;;;;;;;;;;;;;8.06;56.76;96965.09;6372901;27;20320;-64
2022/04/12 05:07:27;;;;;;;;;;;;;;;8.05;56.73;96960.78;6372921;27;20413;-63
2022/04/12 05:10:32;;;;;;;;;;;;;;;8.07;56.85;96956.31;6355074;27;19923;-64
2022/04/12 05:13:35;;;;;;;;;;;;;;;8.12;56.68;96966.53;6371120;27;20304;-64
2022/04/12 05:16:38;;;;;;;;;;;;;;;8.28;56.35;96953.47;6372561;27;19923;-65
2022/04/12 05:19:40;;;;;;;;;;;;;;;8.36;56.19;96961.75;6372296;27;19930;-64
2022/04/12 05:22:43;;;;;;;;;;;;;;;8.50;55.92;96972.38;6371554;27;19924;-66
2022/04/12 05:25:46;;;;;;;;;;;;;;;8.64;55.73;96981.28;6371775;27;19923;-65
2022/04/12 05:28:49;;;;;;;;;;;;;;;8.73;55.52;96975.50;6372113;27;19949;-68
2022/04/12 05:31:53;;;;;;;;;;;;;;;9.04;55.06;96994.78;6372072;27;19923;-64
2022/04/12 05:34:56;;;;;;;;;;;;;;;9.73;53.71;96994.22;6372053;27;19924;-64
2022/04/12 05:38:00;;;;;;;;;;;;;;;10.42;52.20;96997.13;6371265;27;19927;-64
2022/04/12 05:41:04;;;;;;;;;;;;;;;11.52;49.77;97008.44;6371922;27;19931;-64
2022/04/12 05:44:05;;;;;;;;;;;;;;;12.12;48.38;96993.88;6372075;27;19923;-64
2022/04/12 05:47:09;;;;;;;;;;;;;;;12.23;48.05;97001.91;6371810;27;19923;-64
2022/04/12 05:50:12;;;;;;;;;;;;;;;12.26;48.23;97006.13;6371020;27;19923;-64
2022/04/12 05:53:16;;;;;;;;;;;;;;;12.45;47.54;97013.56;6371712;27;19923;-64
2022/04/12 05:56:18;;;;;;;;;;;;;;;12.06;48.67;97016.25;6370338;27;19946;-65
2022/04/12 05:59:22;;;;;;;;;;;;;;;11.61;49.10;97015.72;6371549;27;20013;-64
2022/04/12 06:02:26;;;;;;;;;;;;;;;11.12;48.79;97003.13;6371891;27;20345;-65
2022/04/12 06:05:29;;;;;;;;;;;;;;;10.66;49.34;97016.63;6371422;27;19930;-65
2022/04/12 06:08:35;;;;;;;;;;;;;;;10.23;50.57;97014.00;6370939;27;20205;-64
2022/04/12 06:11:36;;;;;;;;;;;;;;;10.05;51.30;97026.47;6371452;28;19924;-65
2022/04/12 06:14:37;;;;;;;;;;;;;;;10.14;51.10;97017.19;6370762;28;19926;-64
2022/04/12 06:17:39;;;;;;;;;;;;;;;10.01;51.30;97013.59;6353413;28;19930;-65
2022/04/12 06:20:40;;;;;;;;;;;;;;;9.81;51.36;97002.50;6370872;28;19927;-64
2022/04/12 06:23:44;;;;;;;;;;;;;;;9.96;51.48;96999.88;6371242;28;19930;-64
2022/04/12 06:26:45;;;;;;;;;;;;;;;9.84;51.55;96991.78;6371067;28;19919;-64
2022/04/12 06:29:48;;;;;;;;;;;;;;;10.06;51.26;96982.63;6371112;28;19931;-65
2022/04/12 06:32:52;;;;;;;;;;;;;;;10.23;50.89;96981.59;6371295;28;20307;-64
2022/04/12 06:35:53;;;;;;;;;;;;;;;10.80;50.03;96971.00;6370658;28;19927;-65
2022/04/12 06:38:57;;;;;;;;;;;;;;;12.01;47.62;96964.75;6370108;28;19928;-65
2022/04/12 06:41:58;;;;;;;;;;;;;;;13.39;45.26;96966.28;6370566;28;19964;-65
2022/04/12 06:45:02;;;;;;;;;;;;;;;14.91;42.56;96966.88;6370815;28;19923;-64
2022/04/12 06:48:07;;;;;;;;;;;;;;;16.44;39.89;96967.28;6370914;28;19923;-63
2022/04/12 06:51:08;;;;;;;;;;;;;;;17.55;38.55;96966.31;6370413;28;19924;-64
2022/04/12 06:54:12;;;;;;;;;;;;;;;17.04;38.46;96962.91;6370542;28;19946;-64
2022/04/12 06:57:16;;;;;;;;;;;;;;;15.88;40.79;96965.91;6370301;28;19930;-63
2022/04/12 07:00:18;;;;;;;;;;;;;;;15.02;41.99;96953.59;6370158;28;19927;-65
2022/04/12 07:03:20;;;;;;;;;;;;;;;14.10;43.43;96952.97;6352089;28;19923;-65
2022/04/12 07:06:25;;;;;;;;;;;;;;;13.34;44.60;96949.91;6367364;28;20372;-64
2022/04/12 07:09:29;;;;;;;;;;;;;;;12.62;46.03;96943.75;6374131;27;19968;-64
2022/04/12 07:12:33;;;;;;;;;;;;;;;12.08;46.48;96944.91;6375240;27;19927;-64
2022/04/12 07:15:37;;;;;;;;;;;;;;;11.45;47.71;96946.56;6375582;27;19924;-65
2022/04/12 07:18:41;;;;;;;;;;;;;;;11.14;47.93;96943.31;6375489;27;19923;-64
2022/04/12 07:21:44;;;;;;;;;;;;;;;10.74;48.67;96951.19;6375354;27;19923;-64
2022/04/12 07:24:49;;;;;;;;;;;;;;;10.53;48.99;96942.00;6357097;27;19923;-64
2022/04/12 07:27:52;;;;;;;;;;;;;;;10.40;49.31;96935.88;6374074;27;19924;-64
2022/04/12 07:30:58;;;;;;;;;;;;;;;10.31;49.43;96932.88;6375079;27;19923;-64
2022/04/12 07:34:04;;;;;;;;;;;;;;;10.44;49.26;96932.09;6375134;27;19923;-65
2022/04/12 07:37:08;;;;;;;;;;;;;;;10.73;48.67;96923.19;6375140;27;20010;-66
2022/04/12 07:40:13;;;;;;;;;;;;;;;11.17;48.12;96916.78;6374776;27;20376;-66
2022/04/12 07:43:20;;;;;;;;;;;;;;;10.66;48.95;96918.41;6374659;27;19957;-64
2022/04/12 07:46:21;;;;;;;;;;;;;;;10.31;49.79;96919.72;6373404;27;20073;-64
2022/04/12 07:49:23;;;;;;;;;;;;;;;10.23;50.52;96919.31;6373893;27;19923;-65
2022/04/12 07:52:24;;;;;;;;;;;;;;;9.92;50.99;96919.53;6373705;27;20067;-65
2022/04/12 07:55:25;;;;;;;;;;;;;;;9.76;51.21;96914.38;6374160;27;19923;-64
2022/04/12 07:58:26;;;;;;;;;;;;;;;9.77;51.55;96922.16;6373818;27;19923;-65
2022/04/12 08:01:30;;;;;;;;;;;;;;;9.67;51.74;96907.88;6356615;27;19923;-65
2022/04/12 08:04:34;;;;;;;;;;;;;;;9.78;51.63;96902.81;6374180;27;20311;-64
2022/04/12 08:07:37;;;;;;;;;;;;;;;9.93;52.17;96911.53;6372347;27;20231;-64
2022/04/12 08:10:38;;;;;;;;;;;;;;;9.67;52.87;96900.84;6374121;27;19924;-65
2022/04/12 08:13:40;;;;;;;;;;;;;;;9.61;53.81;96910.88;6373192;27;19946;-64
2022/04/12 08:16:46;;;;;;;;;;;;;;;9.24;55.00;96897.34;6373976;27;19924;-64
2022/04/12 08:19:53;;;;;;;;;;;;;;;9.09;56.39;96893.00;6373455;27;20388;-64
2022/04/12 08:22:59;;;;;;;;;;;;;;;8.79;56.67;96885.94;6373913;27;20303;-63
2022/04/12 08:26:00;;;;;;;;;;;;;;;8.76;57.32;96883.50;6372825;27;19930;-65
2022/04/12 08:29:06;;;;;;;;;;;;;;;8.47;59.50;96899.13;6373361;27;19927;-64
2022/04/12 08:32:10;;;;;;;;;;;;;;;7.82;60.94;96899.13;6373656;27;20316;-64
2022/04/12 08:35:11;;;;;;;;;;;;;;;7.51;61.95;96897.28;6373456;27;20294;-64
2022/04/12 08:38:12;;;;;;;;;;;;;;;7.33;62.83;96896.50;6373079;27;19923;-64
2022/04/12 08:41:16;;;;;;;;;;;;;;;6.98;64.37;96896.50;6373274;27;19919;-65
2022/04/12 08:44:20;;;;;;;;;;;;;;;6.87;63.38;96903.19;6373289;27;20463;-64
2022/04/12 08:47:22;;;;;;;;;;;;;;;6.92;64.17;96890.72;6354595;27;20395;-64
2022/04/12 08:50:24;;;;;;;;;;;;;;;6.84;64.10;96898.09;6372679;27;19950;-64
2022/04/12 08:53:25;;;;;;;;;;;;;;;6.95;64.00;96895.81;6372405;27;20277;-64
2022/04/12 08:56:29;;;;;;;;;;;;;;;7.07;63.79;96895.16;6373408;27;19923;-65
2022/04/12 08:59:32;;;;;;;;;;;;;;;7.09;63.77;96889.88;6372939;27;20011;-64
2022/04/12 09:02:36;;;;;;;;;;;;;;;7.19;63.17;96893.72;6372855;27;20311;-64
2022/04/12 09:05:40;;;;;;;;;;;;;;;7.31;63.18;96882.63;6372516;27;20389;-65
2022/04/12 09:08:42;;;;;;;;;;;;;;;7.42;63.21;96882.06;6371419;27;20388;-65
2022/04/12 09:11:54;;;;;;;;;;;;;;;7.44;62.90;96882.81;6372289;27;19923;-64
2022/04/12 09:14:58;;;;;;;;;;;;;;;7.55;62.97;96885.72;6372567;27;19985;-64
2022/04/12 09:17:59;;;;;;;;;;;;;;;7.60;62.84;96886.34;6372496;27;19923;-65
2022/04/12 09:21:30;;;;;;;;;;;;;;;7.60;62.81;96888.94;6372268;27;19927;-64
2022/04/12 09:24:31;;;;;;;;;;;;;;;7.72;62.69;96887.44;6368429;27;19987;-64
2022/04/12 09:27:34;;;;;;;;;;;;;;;7.75;63.00;96881.19;6371054;27;19933;-65
2022/04/12 09:30:39;;;;;;;;;;;;;;;7.87;62.63;96875.31;6371505;27;20018;-65
2022/04/12 09:33:44;;;;;;;;;;;;;;;7.86;62.73;96879.69;6371161;27;19949;-65
2022/04/12 09:36:46;;;;;;;;;;;;;;;7.94;62.86;96881.91;6371226;27;19923;-65
2022/04/12 09:39:59;;;;;;;;;;;;;;;7.87;63.22;96877.94;6371406;27;19976;-65
2022/04/12 09:43:05;;;;;;;;;;;;;;;7.85;63.79;96877.19;6371455;27;19924;-65
2022/04/12 09:46:14;;;;;;;;;;;;;;;7.76;64.19;96873.28;6372031;27;20351;-64
2022/04/12 09:49:15;;;;;;;;;;;;;;;7.61;64.87;96872.34;6370556;27;20428;-64
2022/04/12 09:52:20;;;;;;;;;;;;;;;7.62;65.10;96871.41;6371851;27;19923;-63
2022/04/12 09:55:34;;;;;;;;;;;;;;;7.64;65.64;96869.53;6371286;27;20311;-64
2022/04/12 09:58:39;;;;;;;;;;;;;;;7.61;65.80;96874.94;6370853;27;19927;-64
2022/04/12 10:01:41;;;;;;;;;;;;;;;7.56;66.16;96865.66;6352735;27;19920;-64
2022/04/12 10:04:44;;;;;;;;;;;;;;;7.55;66.41;96863.94;6370661;27;19923;-64
2022/04/12 10:07:46;;;;;;;;;;;;;;;7.61;66.72;96874.94;6370707;27;19927;-64
2022/04/12 10:10:47;;;;;;;;;;;;;;;7.51;67.22;96868.50;6371046;27;19923;-65
2022/04/12 10:13:50;;;;;;;;;;;;;;;7.57;67.14;96857.69;6371087;28;19927;-64
2022/04/12 10:16:55;;;;;;;;;;;;;;;7.68;67.12;96864.16;6370206;28;19923;-65
2022/04/12 10:20:00;;;;;;;;;;;;;;;7.81;67.38;96865.16;6370307;28;20346;-64
2022/04/12 10:23:05;;;;;;;;;;;;;;;7.86;67.38;96855.28;6371515;28;19923;-64
2022/04/12 10:26:06;;;;;;;;;;;;;;;7.82;67.50;96851.16;6370065;28;19930;-65
2022/04/12 10:29:08;;;;;;;;;;;;;;;7.76;68.35;96859.34;6370548;28;20296;-64
2022/04/12 10:32:12;;;;;;;;;;;;;;;7.68;68.29;96858.91;6371300;28;20416;-64
2022/04/12 10:35:14;;;;;;;;;;;;;;;7.66;69.02;96856.34;6370402;28;19923;-64
2022/04/12 10:38:18;;;;;;;;;;;;;;;7.65;69.20;96855.50;6371206;28;20300;-64
2022/04/12 10:41:34;;;;;;;;;;;;;;;7.59;69.47;96855.84;6370339;27;19923;-64
2022/04/12 10:44:36;;;;;;;;;;;;;;;7.50;69.42;96872.06;6375381;27;19923;-64
2022/04/12 10:47:42;;;;;;;;;;;;;;;7.57;69.47;96862.94;6375752;27;20456;-64
2022/04/12 10:50:45;;;;;;;;;;;;;;;7.46;69.82;96867.03;6375426;27;19973;-64
2022/04/12 10:53:46;;;;;;;;;;;;;;;7.36;70.30;96858.81;6374878;27;19923;-64
2022/04/12 10:57:08;;;;;;;;;;;;;;;7.31;70.49;96866.09;6374817;27;20594;-64
2022/04/12 11:00:11;;;;;;;;;;;;;;;7.19;70.66;96878.03;6375955;27;19923;-65
2022/04/12 11:03:13;;;;;;;;;;;;;;;7.15;70.43;96872.09;6340219;27;19927;-63
2022/04/12 11:06:23;;;;;;;;;;;;;;;7.24;70.68;96864.69;6375352;27;20013;-63
2022/04/12 11:09:26;;;;;;;;;;;;;;;7.18;70.60;96877.16;6374673;27;19923;-64
2022/04/12 11:12:39;;;;;;;;;;;;;;;7.20;71.11;96875.31;6375109;27;19923;-64
2022/04/12 11:15:53;;;;;;;;;;;;;;;7.29;71.25;96873.16;6375414;27;20052;-64
2022/04/12 11:18:58;;;;;;;;;;;;;;;7.20;71.19;96877.09;6375149;27;19920;-63
2022/04/12 11:22:00;;;;;;;;;;;;;;;7.24;70.89;96870.75;6374650;27;19930;-63
2022/04/12 11:25:16;;;;;;;;;;;;;;;7.20;71.14;96877.94;6374367;27;20030;-64
2022/04/12 11:28:21;;;;;;;;;;;;;;;7.19;71.37;96883.25;6375133;27;19970;-65
2022/04/12 11:31:22;;;;;;;;;;;;;;;7.24;71.39;96869.91;6374524;27;20026;-63
2022/04/12 11:34:25;;;;;;;;;;;;;;;7.11;71.64;96881.03;6374048;27;19931;-63
2022/04/12 11:37:30;;;;;;;;;;;;;;;7.18;71.41;96881.56;6373874;27;20441;-66
2022/04/12 11:40:34;;;;;;;;;;;;;;;7.08;71.41;96886.41;6373874;27;20425;-64
2022/04/12 11:43:37;;;;;;;;;;;;;;;7.09;71.46;96888.09;6374349;27;20026;-63
2022/04/12 11:46:40;;;;;;;;;;;;;;;7.07;71.97;96884.72;6374307;27;19923;-64
2022/04/12 11:49:42;;;;;;;;;;;;;;;7.09;71.91;96882.88;6373107;27;19923;-63
2022/04/12 11:52:46;;;;;;;;;;;;;;;7.05;71.91;96883.97;6373725;27;19923;-64
2022/04/12 11:55:47;;;;;;;;;;;;;;;7.12;72.16;96885.31;6373680;27;19924;-63
2022/04/12 11:58:48;;;;;;;;;;;;;;;7.13;71.93;96884.44;6373671;27;19969;-65
2022/04/12 12:01:50;;;;;;;;;;;;;;;7.11;71.93;96886.25;6374239;27;20384;-65
2022/04/12 12:04:52;;;;;;;;;;;;;;;7.20;71.72;96880.56;6355369;27;19927;-65
2022/04/12 12:08:01;;;;;;;;;;;;;;;7.16;70.86;96884.25;6374257;27;20037;-64
2022/04/12 12:11:11;;;;;;;;;;;;;;;7.11;71.15;96886.25;6374059;27;19924;-64
2022/04/12 12:14:12;;;;;;;;;;;;;;;7.05;70.47;96883.09;6373959;27;19923;-63
2022/04/12 12:17:18;;;;;;;;;;;;;;;7.00;70.45;96895.59;6374034;27;19928;-64
2022/04/12 12:20:21;;;;;;;;;;;;;;;7.08;70.72;96896.88;6373303;27;19924;-64
2022/04/12 12:23:22;;;;;;;;;;;;;;;7.09;70.44;96900.34;6373085;27;19923;-64
2022/04/12 12:26:28;;;;;;;;;;;;;;;6.96;69.73;96897.47;6372481;27;19924;-64
2022/04/12 12:29:34;;;;;;;;;;;;;;;7.07;69.71;96895.16;6372708;27;19988;-64
2022/04/12 12:32:39;;;;;;;;;;;;;;;7.00;69.02;96888.56;6372552;27;19928;-64
2022/04/12 12:35:46;;;;;;;;;;;;;;;7.07;68.67;96900.41;6373855;27;20340;-64
2022/04/12 12:38:48;;;;;;;;;;;;;;;7.00;67.95;96903.44;6372968;27;19946;-64
2022/04/12 12:41:55;;;;;;;;;;;;;;;7.01;67.69;96900.72;6373405;27;19923;-64
2022/04/12 12:45:07;;;;;;;;;;;;;;;6.95;67.47;96906.25;6372199;27;19923;-65
2022/04/12 12:48:09;;;;;;;;;;;;;;;6.96;67.34;96894.88;6353902;27;19926;-65
2022/04/12 12:51:10;;;;;;;;;;;;;;;6.90;67.06;96913.50;6372328;27;19924;-64
2022/04/12 12:54:15;;;;;;;;;;;;;;;7.09;66.76;96901.19;6372295;27;20392;-64
2022/04/12 12:57:34;;;;;;;;;;;;;;;7.02;66.53;96902.44;6372925;27;19934;-65
2022/04/12 13:00:41;;;;;;;;;;;;;;;6.78;66.93;96908.88;6372963;27;19923;-65
2022/04/12 13:03:53;;;;;;;;;;;;;;;6.72;67.52;96916.09;6371493;27;19938;-64
2022/04/12 13:07:10;;;;;;;;;;;;;;;6.67;67.66;96918.06;6371097;27;19923;-65
2022/04/12 13:10:15;;;;;;;;;;;;;;;6.43;68.42;96908.81;6372583;27;19923;-65
2022/04/12 13:13:16;;;;;;;;;;;;;;;6.29;69.64;96912.94;6372930;27;19923;-65
2022/04/12 13:16:17;;;;;;;;;;;;;;;6.21;70.38;96915.03;6353974;27;19980;-66
2022/04/12 13:19:28;;;;;;;;;;;;;;;6.02;70.71;96911.59;6353878;27;20295;-65
2022/04/12 13:22:29;;;;;;;;;;;;;;;6.17;70.87;96913.50;6353407;27;19924;-64
2022/04/12 13:25:31;;;;;;;;;;;;;;;5.98;71.20;96910.06;6371467;27;19923;-65
2022/04/12 13:28:34;;;;;;;;;;;;;;;5.87;71.74;96905.28;6372143;27;20425;-66
2022/04/12 13:31:36;;;;;;;;;;;;;;;5.84;72.05;96903.66;6372222;27;20311;-67
2022/04/12 13:34:40;;;;;;;;;;;;;;;5.73;72.03;96903.28;6372271;27;19923;-64
2022/04/12 13:37:44;;;;;;;;;;;;;;;5.75;71.96;96905.84;6371970;27;19927;-65
2022/04/12 13:40:46;;;;;;;;;;;;;;;5.77;71.93;96904.84;6371849;27;19923;-64
2022/04/12 13:43:47;;;;;;;;;;;;;;;5.83;72.53;96899.34;6371761;27;19930;-63
2022/04/12 13:46:48;;;;;;;;;;;;;;;5.97;72.56;96892.66;6371651;27;19923;-63
2022/04/12 13:49:49;;;;;;;;;;;;;;;5.78;72.63;96900.47;6353416;27;19923;-64
2022/04/12 13:52:55;;;;;;;;;;;;;;;5.77;72.56;96897.00;6371620;27;19972;-64
2022/04/12 13:55:58;;;;;;;;;;;;;;;5.71;72.72;96897.28;6370517;27;19984;-64
2022/04/12 13:59:02;;;;;;;;;;;;;;;5.71;73.41;96894.66;6370213;27;20369;-64
2022/04/12 14:02:03;;;;;;;;;;;;;;;5.67;72.68;96887.91;6370744;27;20315;-63
2022/04/12 14:05:05;;;;;;;;;;;;;;;5.72;72.72;96896.38;6370289;27;19931;-65
2022/04/12 14:08:10;;;;;;;;;;;;;;;5.93;73.04;96898.94;6371294;27;20411;-63
2022/04/12 14:11:11;;;;;;;;;;;;;;;5.88;72.46;96893.06;6353186;28;19923;-64
2022/04/12 14:14:15;;;;;;;;;;;;;;;6.04;71.21;96901.94;6353682;28;19931;-65
2022/04/12 14:17:20;;;;;;;;;;;;;;;5.68;71.83;96899.19;6371011;27;19923;-64
2022/04/12 14:20:22;;;;;;;;;;;;;;;5.56;72.49;96905.81;6371605;28;19930;-64
2022/04/12 14:23:25;;;;;;;;;;;;;;;5.64;72.96;96908.94;6371514;28;19924;-65
2022/04/12 14:26:26;;;;;;;;;;;;;;;5.58;72.65;96909.22;6352577;28;20231;-64
2022/04/12 14:29:27;;;;;;;;;;;;;;;5.51;72.90;96898.16;6370173;28;19924;-64
2022/04/12 14:32:28;;;;;;;;;;;;;;;5.52;72.81;96899.00;6370575;28;19923;-64
2022/04/12 14:35:33;;;;;;;;;;;;;;;5.55;73.12;96901.53;6370623;28;19919;-64
2022/04/12 14:38:38;;;;;;;;;;;;;;;5.54;72.95;96902.41;6371239;28;19923;-64
2022/04/12 14:41:40;;;;;;;;;;;;;;;5.58;72.71;96898.78;6370672;28;19930;-64
2022/04/12 14:44:44;;;;;;;;;;;;;;;5.54;72.18;96902.41;6371259;28;19927;-64
2022/04/12 14:47:50;;;;;;;;;;;;;;;5.48;72.36;96894.84;6371188;28;19924;-65
2022/04/12 14:50:55;;;;;;;;;;;;;;;5.45;72.29;96900.22;6370329;28;19923;-64
2022/04/12 14:53:56;;;;;;;;;;;;;;;5.61;72.28;96893.41;6370541;28;19927;-64
2022/04/12 14:56:58;;;;;;;;;;;;;;;5.45;72.18;96892.38;6371062;28;19983;-64
2022/04/12 14:59:59;;;;;;;;;;;;;;;5.48;71.91;96897.47;6370002;28;20364;-64
2022/04/12 15:03:01;;;;;;;;;;;;;;;5.49;71.08;96902.63;6370054;28;19924;-65
2022/04/12 15:06:06;;;;;;;;;;;;;;;5.47;71.34;96901.00;6336374;28;19924;-64
2022/04/12 15:09:09;;;;;;;;;;;;;;;5.53;71.06;96913.78;6369868;28;20339;-64
2022/04/12 15:12:12;;;;;;;;;;;;;;;5.42;70.85;96918.63;6370957;28;19923;-64
2022/04/12 15:15:13;;;;;;;;;;;;;;;5.44;71.31;96912.41;6370837;28;20407;-64
2022/04/12 15:18:15;;;;;;;;;;;;;;;5.54;71.20;96913.69;6351678;28;19938;-64
2022/04/12 15:21:16;;;;;;;;;;;;;;;5.50;71.28;96916.53;6370086;28;19930;-64
2022/04/12 15:24:23;;;;;;;;;;;;;;;5.60;70.84;96915.19;6352186;28;19924;-64
2022/04/12 15:27:25;;;;;;;;;;;;;;;5.39;71.04;96930.88;6369610;28;19923;-64
2022/04/12 15:30:27;;;;;;;;;;;;;;;5.35;71.28;96934.53;6373502;27;19923;-64
2022/04/12 15:33:29;;;;;;;;;;;;;;;5.25;71.29;96933.22;6374220;27;19929;-65
2022/04/12 15:36:30;;;;;;;;;;;;;;;5.26;71.84;96928.84;6374187;27;19920;-64
2022/04/12 15:39:31;;;;;;;;;;;;;;;5.48;70.86;96939.22;6374260;27;20292;-65
2022/04/12 15:42:35;;;;;;;;;;;;;;;5.38;70.66;96939.63;6374312;27;19920;-63
2022/04/12 15:45:38;;;;;;;;;;;;;;;5.32;70.95;96937.28;6374914;27;19923;-64
2022/04/12 15:48:39;;;;;;;;;;;;;;;5.21;71.32;96942.13;6373981;27;19946;-65
2022/04/12 15:51:43;;;;;;;;;;;;;;;5.26;71.17;96934.91;6374728;27;20319;-64
2022/04/12 15:54:47;;;;;;;;;;;;;;;5.14;71.18;96936.28;6374726;27;19930;-64
2022/04/12 15:57:49;;;;;;;;;;;;;;;5.17;71.16;96935.31;6373964;27;19923;-64
2022/04/12 16:00:54;;;;;;;;;;;;;;;5.29;71.05;96934.78;6372855;27;19935;-65
2022/04/12 16:03:56;;;;;;;;;;;;;;;5.25;70.70;96937.59;6372753;27;19946;-64
2022/04/12 16:07:03;;;;;;;;;;;;;;;5.12;71.03;96929.44;6373712;27;20374;-65
2022/04/12 16:10:05;;;;;;;;;;;;;;;5.10;71.18;96923.47;6373385;27;20315;-62